sensor_id;sensor_type;location;lat;lon;timestamp;temperature;humidity
76384;SHT30;65204;48.606;7.598;2023-11-21T00:00:22;13.47;69.52
76384;SHT30;65204;48.606;7.598;2023-11-21T00:00:53;13.48;69.50
76384;SHT30;65204;48.606;7.598;2023-11-21T00:01:23;13.45;69.54
76384;SHT30;65204;48.606;7.598;2023-11-21T00:01:53;13.47;69.64
76384;SHT30;65204;48.606;7.598;2023-11-21T00:02:24;13.47;69.57
76384;SHT30;65204;48.606;7.598;2023-11-21T00:02:54;13.47;69.51
76384;SHT30;65204;48.606;7.598;2023-11-21T00:03:24;13.48;69.49
76384;SHT30;65204;48.606;7.598;2023-11-21T00:03:58;13.47;69.55
76384;SHT30;65204;48.606;7.598;2023-11-21T00:04:28;13.47;69.49
76384;SHT30;65204;48.606;7.598;2023-11-21T00:04:58;13.45;69.59
76384;SHT30;65204;48.606;7.598;2023-11-21T00:05:29;13.47;69.59
76384;SHT30;65204;48.606;7.598;2023-11-21T00:05:59;13.45;69.68
76384;SHT30;65204;48.606;7.598;2023-11-21T00:06:30;13.45;69.69
76384;SHT30;65204;48.606;7.598;2023-11-21T00:07:01;13.45;69.65
76384;SHT30;65204;48.606;7.598;2023-11-21T00:07:31;13.47;69.60
76384;SHT30;65204;48.606;7.598;2023-11-21T00:08:01;13.47;69.52
76384;SHT30;65204;48.606;7.598;2023-11-21T00:08:31;13.47;69.59
76384;SHT30;65204;48.606;7.598;2023-11-21T00:09:02;13.45;69.61
76384;SHT30;65204;48.606;7.598;2023-11-21T00:09:32;13.44;69.64
76384;SHT30;65204;48.606;7.598;2023-11-21T00:10:03;13.47;69.58
76384;SHT30;65204;48.606;7.598;2023-11-21T00:10:35;13.45;69.57
76384;SHT30;65204;48.606;7.598;2023-11-21T00:11:08;13.45;69.51
76384;SHT30;65204;48.606;7.598;2023-11-21T00:11:38;13.45;69.47
76384;SHT30;65204;48.606;7.598;2023-11-21T00:12:09;13.50;69.40
76384;SHT30;65204;48.606;7.598;2023-11-21T00:12:40;13.47;69.39
76384;SHT30;65204;48.606;7.598;2023-11-21T00:13:12;13.45;69.38
76384;SHT30;65204;48.606;7.598;2023-11-21T00:13:42;13.50;69.36
76384;SHT30;65204;48.606;7.598;2023-11-21T00:14:13;13.50;69.50
76384;SHT30;65204;48.606;7.598;2023-11-21T00:14:45;13.48;69.46
76384;SHT30;65204;48.606;7.598;2023-11-21T00:15:15;13.48;69.48
76384;SHT30;65204;48.606;7.598;2023-11-21T00:15:46;13.50;69.50
76384;SHT30;65204;48.606;7.598;2023-11-21T00:16:16;13.47;69.49
76384;SHT30;65204;48.606;7.598;2023-11-21T00:16:46;13.51;69.47
76384;SHT30;65204;48.606;7.598;2023-11-21T00:17:17;13.50;69.48
76384;SHT30;65204;48.606;7.598;2023-11-21T00:17:47;13.48;69.46
76384;SHT30;65204;48.606;7.598;2023-11-21T00:18:17;13.50;69.42
76384;SHT30;65204;48.606;7.598;2023-11-21T00:18:48;13.53;69.43
76384;SHT30;65204;48.606;7.598;2023-11-21T00:19:19;13.54;69.41
76384;SHT30;65204;48.606;7.598;2023-11-21T00:19:50;13.51;69.39
76384;SHT30;65204;48.606;7.598;2023-11-21T00:20:22;13.51;69.40
76384;SHT30;65204;48.606;7.598;2023-11-21T00:20:52;13.53;69.34
76384;SHT30;65204;48.606;7.598;2023-11-21T00:21:22;13.51;69.35
76384;SHT30;65204;48.606;7.598;2023-11-21T00:21:53;13.51;69.34
76384;SHT30;65204;48.606;7.598;2023-11-21T00:22:23;13.51;69.38
76384;SHT30;65204;48.606;7.598;2023-11-21T00:22:54;13.51;69.32
76384;SHT30;65204;48.606;7.598;2023-11-21T00:23:24;13.51;69.28
76384;SHT30;65204;48.606;7.598;2023-11-21T00:23:54;13.54;69.25
76384;SHT30;65204;48.606;7.598;2023-11-21T00:24:25;13.55;69.22
76384;SHT30;65204;48.606;7.598;2023-11-21T00:24:56;13.57;69.26
76384;SHT30;65204;48.606;7.598;2023-11-21T00:25:26;13.55;69.24
76384;SHT30;65204;48.606;7.598;2023-11-21T00:25:56;13.55;69.23
76384;SHT30;65204;48.606;7.598;2023-11-21T00:26:27;13.58;69.26
76384;SHT30;65204;48.606;7.598;2023-11-21T00:26:57;13.57;69.20
76384;SHT30;65204;48.606;7.598;2023-11-21T00:27:28;13.54;69.28
76384;SHT30;65204;48.606;7.598;2023-11-21T00:27:58;13.57;69.22
76384;SHT30;65204;48.606;7.598;2023-11-21T00:28:31;13.55;69.22
76384;SHT30;65204;48.606;7.598;2023-11-21T00:29:02;13.54;69.20
76384;SHT30;65204;48.606;7.598;2023-11-21T00:29:33;13.57;69.16
76384;SHT30;65204;48.606;7.598;2023-11-21T00:30:03;13.55;69.19
76384;SHT30;65204;48.606;7.598;2023-11-21T00:30:38;13.57;69.21
76384;SHT30;65204;48.606;7.598;2023-11-21T00:31:09;13.55;69.18
76384;SHT30;65204;48.606;7.598;2023-11-21T00:31:39;13.55;69.14
76384;SHT30;65204;48.606;7.598;2023-11-21T00:32:09;13.58;69.15
76384;SHT30;65204;48.606;7.598;2023-11-21T00:32:40;13.58;69.15
76384;SHT30;65204;48.606;7.598;2023-11-21T00:33:10;13.59;69.13
76384;SHT30;65204;48.606;7.598;2023-11-21T00:33:41;13.59;69.14
76384;SHT30;65204;48.606;7.598;2023-11-21T00:34:12;13.58;69.16
76384;SHT30;65204;48.606;7.598;2023-11-21T00:34:42;13.59;69.19
76384;SHT30;65204;48.606;7.598;2023-11-21T00:35:12;13.57;69.25
76384;SHT30;65204;48.606;7.598;2023-11-21T00:35:43;13.54;69.30
76384;SHT30;65204;48.606;7.598;2023-11-21T00:36:13;13.54;69.32
76384;SHT30;65204;48.606;7.598;2023-11-21T00:36:43;13.57;69.34
76384;SHT30;65204;48.606;7.598;2023-11-21T00:37:14;13.54;69.26
76384;SHT30;65204;48.606;7.598;2023-11-21T00:37:44;13.59;69.28
76384;SHT30;65204;48.606;7.598;2023-11-21T00:38:15;13.54;69.29
76384;SHT30;65204;48.606;7.598;2023-11-21T00:38:45;13.55;69.28
76384;SHT30;65204;48.606;7.598;2023-11-21T00:39:15;13.55;69.28
76384;SHT30;65204;48.606;7.598;2023-11-21T00:39:46;13.57;69.27
76384;SHT30;65204;48.606;7.598;2023-11-21T00:40:16;13.55;69.28
76384;SHT30;65204;48.606;7.598;2023-11-21T00:40:49;13.55;69.41
76384;SHT30;65204;48.606;7.598;2023-11-21T00:41:19;13.57;69.35
76384;SHT30;65204;48.606;7.598;2023-11-21T00:41:50;13.57;69.36
76384;SHT30;65204;48.606;7.598;2023-11-21T00:42:21;13.57;69.40
76384;SHT30;65204;48.606;7.598;2023-11-21T00:42:51;13.58;69.40
76384;SHT30;65204;48.606;7.598;2023-11-21T00:43:22;13.58;69.39
76384;SHT30;65204;48.606;7.598;2023-11-21T00:43:53;13.58;69.40
76384;SHT30;65204;48.606;7.598;2023-11-21T00:44:25;13.57;69.30
76384;SHT30;65204;48.606;7.598;2023-11-21T00:44:55;13.59;69.31
76384;SHT30;65204;48.606;7.598;2023-11-21T00:45:25;13.58;69.35
76384;SHT30;65204;48.606;7.598;2023-11-21T00:45:56;13.57;69.40
76384;SHT30;65204;48.606;7.598;2023-11-21T00:46:26;13.57;69.43
76384;SHT30;65204;48.606;7.598;2023-11-21T00:46:59;13.55;69.44
76384;SHT30;65204;48.606;7.598;2023-11-21T00:47:30;13.58;69.45
76384;SHT30;65204;48.606;7.598;2023-11-21T00:48:00;13.57;69.47
76384;SHT30;65204;48.606;7.598;2023-11-21T00:48:30;13.54;69.47
76384;SHT30;65204;48.606;7.598;2023-11-21T00:49:01;13.54;69.42
76384;SHT30;65204;48.606;7.598;2023-11-21T00:49:31;13.58;69.37
76384;SHT30;65204;48.606;7.598;2023-11-21T00:50:02;13.55;69.38
76384;SHT30;65204;48.606;7.598;2023-11-21T00:50:32;13.55;69.38
76384;SHT30;65204;48.606;7.598;2023-11-21T00:51:03;13.57;69.39
76384;SHT30;65204;48.606;7.598;2023-11-21T00:51:34;13.58;69.38
76384;SHT30;65204;48.606;7.598;2023-11-21T00:52:04;13.58;69.38
76384;SHT30;65204;48.606;7.598;2023-11-21T00:52:35;13.59;69.36
76384;SHT30;65204;48.606;7.598;2023-11-21T00:53:06;13.59;69.34
76384;SHT30;65204;48.606;7.598;2023-11-21T00:53:37;13.57;69.32
76384;SHT30;65204;48.606;7.598;2023-11-21T00:54:07;13.58;69.40
76384;SHT30;65204;48.606;7.598;2023-11-21T00:54:38;13.58;69.40
76384;SHT30;65204;48.606;7.598;2023-11-21T00:55:08;13.55;69.40
76384;SHT30;65204;48.606;7.598;2023-11-21T00:55:39;13.55;69.37
76384;SHT30;65204;48.606;7.598;2023-11-21T00:56:10;13.55;69.39
76384;SHT30;65204;48.606;7.598;2023-11-21T00:56:42;13.54;69.48
76384;SHT30;65204;48.606;7.598;2023-11-21T00:57:12;13.54;69.49
76384;SHT30;65204;48.606;7.598;2023-11-21T00:57:42;13.53;69.52
76384;SHT30;65204;48.606;7.598;2023-11-21T00:58:13;13.53;69.53
76384;SHT30;65204;48.606;7.598;2023-11-21T00:58:43;13.50;69.57
76384;SHT30;65204;48.606;7.598;2023-11-21T00:59:16;13.50;69.59
76384;SHT30;65204;48.606;7.598;2023-11-21T00:59:46;13.50;69.60
76384;SHT30;65204;48.606;7.598;2023-11-21T01:00:17;13.48;69.61
76384;SHT30;65204;48.606;7.598;2023-11-21T01:00:47;13.51;69.58
76384;SHT30;65204;48.606;7.598;2023-11-21T01:01:18;13.53;69.56
76384;SHT30;65204;48.606;7.598;2023-11-21T01:01:49;13.50;69.62
76384;SHT30;65204;48.606;7.598;2023-11-21T01:02:19;13.51;69.60
76384;SHT30;65204;48.606;7.598;2023-11-21T01:02:49;13.53;69.57
76384;SHT30;65204;48.606;7.598;2023-11-21T01:03:20;13.51;69.60
76384;SHT30;65204;48.606;7.598;2023-11-21T01:03:51;13.48;69.57
76384;SHT30;65204;48.606;7.598;2023-11-21T01:04:21;13.53;69.59
76384;SHT30;65204;48.606;7.598;2023-11-21T01:04:52;13.50;69.53
76384;SHT30;65204;48.606;7.598;2023-11-21T01:05:22;13.53;69.49
76384;SHT30;65204;48.606;7.598;2023-11-21T01:05:53;13.54;69.42
76384;SHT30;65204;48.606;7.598;2023-11-21T01:06:24;13.57;69.43
76384;SHT30;65204;48.606;7.598;2023-11-21T01:06:54;13.55;69.43
76384;SHT30;65204;48.606;7.598;2023-11-21T01:07:24;13.57;69.46
76384;SHT30;65204;48.606;7.598;2023-11-21T01:07:55;13.59;69.44
76384;SHT30;65204;48.606;7.598;2023-11-21T01:08:25;13.59;69.44
76384;SHT30;65204;48.606;7.598;2023-11-21T01:08:55;13.59;69.36
76384;SHT30;65204;48.606;7.598;2023-11-21T01:09:26;13.62;69.22
76384;SHT30;65204;48.606;7.598;2023-11-21T01:09:56;13.65;69.22
76384;SHT30;65204;48.606;7.598;2023-11-21T01:10:26;13.64;69.23
76384;SHT30;65204;48.606;7.598;2023-11-21T01:10:57;13.64;69.21
76384;SHT30;65204;48.606;7.598;2023-11-21T01:11:27;13.64;69.18
76384;SHT30;65204;48.606;7.598;2023-11-21T01:11:57;13.65;69.09
76384;SHT30;65204;48.606;7.598;2023-11-21T01:12:30;13.65;69.07
76384;SHT30;65204;48.606;7.598;2023-11-21T01:13:00;13.67;69.07
76384;SHT30;65204;48.606;7.598;2023-11-21T01:13:30;13.68;69.00
76384;SHT30;65204;48.606;7.598;2023-11-21T01:14:01;13.71;69.01
76384;SHT30;65204;48.606;7.598;2023-11-21T01:14:33;13.67;69.01
76384;SHT30;65204;48.606;7.598;2023-11-21T01:15:07;13.67;68.90
76384;SHT30;65204;48.606;7.598;2023-11-21T01:15:37;13.69;68.92
76384;SHT30;65204;48.606;7.598;2023-11-21T01:16:08;13.69;68.90
76384;SHT30;65204;48.606;7.598;2023-11-21T01:16:38;13.71;68.89
76384;SHT30;65204;48.606;7.598;2023-11-21T01:17:08;13.68;68.92
76384;SHT30;65204;48.606;7.598;2023-11-21T01:17:39;13.71;68.85
76384;SHT30;65204;48.606;7.598;2023-11-21T01:18:10;13.74;68.81
76384;SHT30;65204;48.606;7.598;2023-11-21T01:18:41;13.71;68.82
76384;SHT30;65204;48.606;7.598;2023-11-21T01:19:11;13.74;68.83
76384;SHT30;65204;48.606;7.598;2023-11-21T01:19:41;13.72;68.85
76384;SHT30;65204;48.606;7.598;2023-11-21T01:20:12;13.74;68.86
76384;SHT30;65204;48.606;7.598;2023-11-21T01:20:42;13.72;68.90
76384;SHT30;65204;48.606;7.598;2023-11-21T01:21:14;13.74;68.91
76384;SHT30;65204;48.606;7.598;2023-11-21T01:21:44;13.68;68.92
76384;SHT30;65204;48.606;7.598;2023-11-21T01:22:14;13.72;68.90
76384;SHT30;65204;48.606;7.598;2023-11-21T01:22:46;13.68;68.88
76384;SHT30;65204;48.606;7.598;2023-11-21T01:23:19;13.71;68.91
76384;SHT30;65204;48.606;7.598;2023-11-21T01:23:49;13.71;68.90
76384;SHT30;65204;48.606;7.598;2023-11-21T01:24:20;13.75;68.96
76384;SHT30;65204;48.606;7.598;2023-11-21T01:24:51;13.72;68.88
76384;SHT30;65204;48.606;7.598;2023-11-21T01:25:22;13.72;68.90
76384;SHT30;65204;48.606;7.598;2023-11-21T01:25:52;13.74;68.85
76384;SHT30;65204;48.606;7.598;2023-11-21T01:26:23;13.74;68.87
76384;SHT30;65204;48.606;7.598;2023-11-21T01:26:53;13.75;68.91
76384;SHT30;65204;48.606;7.598;2023-11-21T01:27:24;13.74;68.91
76384;SHT30;65204;48.606;7.598;2023-11-21T01:27:54;13.75;68.91
76384;SHT30;65204;48.606;7.598;2023-11-21T01:28:24;13.74;68.91
76384;SHT30;65204;48.606;7.598;2023-11-21T01:28:54;13.74;68.96
76384;SHT30;65204;48.606;7.598;2023-11-21T01:29:25;13.71;69.00
76384;SHT30;65204;48.606;7.598;2023-11-21T01:29:55;13.71;69.02
76384;SHT30;65204;48.606;7.598;2023-11-21T01:30:25;13.71;69.03
76384;SHT30;65204;48.606;7.598;2023-11-21T01:30:56;13.74;68.98
76384;SHT30;65204;48.606;7.598;2023-11-21T01:31:26;13.72;69.00
76384;SHT30;65204;48.606;7.598;2023-11-21T01:31:59;13.71;69.01
76384;SHT30;65204;48.606;7.598;2023-11-21T01:32:30;13.72;69.07
76384;SHT30;65204;48.606;7.598;2023-11-21T01:33:00;13.69;69.14
76384;SHT30;65204;48.606;7.598;2023-11-21T01:33:31;13.68;69.04
76384;SHT30;65204;48.606;7.598;2023-11-21T01:34:01;13.69;69.03
76384;SHT30;65204;48.606;7.598;2023-11-21T01:34:31;13.67;69.05
76384;SHT30;65204;48.606;7.598;2023-11-21T01:35:02;13.68;69.07
76384;SHT30;65204;48.606;7.598;2023-11-21T01:35:32;13.69;69.06
76384;SHT30;65204;48.606;7.598;2023-11-21T01:36:04;13.69;69.07
76384;SHT30;65204;48.606;7.598;2023-11-21T01:36:35;13.68;69.11
76384;SHT30;65204;48.606;7.598;2023-11-21T01:37:05;13.69;69.12
76384;SHT30;65204;48.606;7.598;2023-11-21T01:37:37;13.68;69.12
76384;SHT30;65204;48.606;7.598;2023-11-21T01:38:08;13.68;69.15
76384;SHT30;65204;48.606;7.598;2023-11-21T01:38:38;13.68;69.20
76384;SHT30;65204;48.606;7.598;2023-11-21T01:39:08;13.65;69.27
76384;SHT30;65204;48.606;7.598;2023-11-21T01:39:43;13.65;69.29
76384;SHT30;65204;48.606;7.598;2023-11-21T01:40:14;13.67;69.27
76384;SHT30;65204;48.606;7.598;2023-11-21T01:40:44;13.67;69.27
76384;SHT30;65204;48.606;7.598;2023-11-21T01:41:15;13.64;69.29
76384;SHT30;65204;48.606;7.598;2023-11-21T01:41:45;13.65;69.26
76384;SHT30;65204;48.606;7.598;2023-11-21T01:42:15;13.65;69.27
76384;SHT30;65204;48.606;7.598;2023-11-21T01:42:46;13.64;69.27
76384;SHT30;65204;48.606;7.598;2023-11-21T01:43:17;13.67;69.23
76384;SHT30;65204;48.606;7.598;2023-11-21T01:43:48;13.67;69.21
76384;SHT30;65204;48.606;7.598;2023-11-21T01:44:18;13.67;69.19
76384;SHT30;65204;48.606;7.598;2023-11-21T01:44:49;13.65;69.25
76384;SHT30;65204;48.606;7.598;2023-11-21T01:45:19;13.64;69.34
76384;SHT30;65204;48.606;7.598;2023-11-21T01:45:50;13.65;69.35
76384;SHT30;65204;48.606;7.598;2023-11-21T01:46:22;13.67;69.36
76384;SHT30;65204;48.606;7.598;2023-11-21T01:46:53;13.68;69.29
76384;SHT30;65204;48.606;7.598;2023-11-21T01:47:24;13.67;69.31
76384;SHT30;65204;48.606;7.598;2023-11-21T01:47:54;13.67;69.22
76384;SHT30;65204;48.606;7.598;2023-11-21T01:48:26;13.68;69.26
76384;SHT30;65204;48.606;7.598;2023-11-21T01:48:57;13.65;69.23
76384;SHT30;65204;48.606;7.598;2023-11-21T01:49:28;13.67;69.24
76384;SHT30;65204;48.606;7.598;2023-11-21T01:49:58;13.67;69.22
76384;SHT30;65204;48.606;7.598;2023-11-21T01:50:29;13.68;69.24
76384;SHT30;65204;48.606;7.598;2023-11-21T01:51:00;13.68;69.23
76384;SHT30;65204;48.606;7.598;2023-11-21T01:51:31;13.69;69.29
76384;SHT30;65204;48.606;7.598;2023-11-21T01:52:02;13.68;69.24
76384;SHT30;65204;48.606;7.598;2023-11-21T01:52:35;13.68;69.24
76384;SHT30;65204;48.606;7.598;2023-11-21T01:53:06;13.68;69.32
76384;SHT30;65204;48.606;7.598;2023-11-21T01:53:36;13.65;69.40
76384;SHT30;65204;48.606;7.598;2023-11-21T01:54:07;13.68;69.40
76384;SHT30;65204;48.606;7.598;2023-11-21T01:54:38;13.67;69.34
76384;SHT30;65204;48.606;7.598;2023-11-21T01:55:08;13.68;69.32
76384;SHT30;65204;48.606;7.598;2023-11-21T01:55:40;13.65;69.43
76384;SHT30;65204;48.606;7.598;2023-11-21T01:56:12;13.64;69.49
76384;SHT30;65204;48.606;7.598;2023-11-21T01:56:45;13.67;69.48
76384;SHT30;65204;48.606;7.598;2023-11-21T01:57:16;13.65;69.53
76384;SHT30;65204;48.606;7.598;2023-11-21T01:57:47;13.64;69.55
76384;SHT30;65204;48.606;7.598;2023-11-21T01:58:17;13.68;69.59
76384;SHT30;65204;48.606;7.598;2023-11-21T01:58:48;13.67;69.64
76384;SHT30;65204;48.606;7.598;2023-11-21T01:59:20;13.68;69.69
76384;SHT30;65204;48.606;7.598;2023-11-21T01:59:53;13.67;69.73
76384;SHT30;65204;48.606;7.598;2023-11-21T02:00:24;13.67;69.80
76384;SHT30;65204;48.606;7.598;2023-11-21T02:00:55;13.61;69.93
76384;SHT30;65204;48.606;7.598;2023-11-21T02:01:26;13.65;69.84
76384;SHT30;65204;48.606;7.598;2023-11-21T02:01:56;13.67;69.84
76384;SHT30;65204;48.606;7.598;2023-11-21T02:02:26;13.65;69.89
76384;SHT30;65204;48.606;7.598;2023-11-21T02:02:57;13.65;69.98
76384;SHT30;65204;48.606;7.598;2023-11-21T02:03:29;13.65;70.01
76384;SHT30;65204;48.606;7.598;2023-11-21T02:03:59;13.62;70.06
76384;SHT30;65204;48.606;7.598;2023-11-21T02:04:30;13.61;70.16
76384;SHT30;65204;48.606;7.598;2023-11-21T02:05:01;13.61;70.21
76384;SHT30;65204;48.606;7.598;2023-11-21T02:05:32;13.62;70.24
76384;SHT30;65204;48.606;7.598;2023-11-21T02:06:02;13.62;70.22
76384;SHT30;65204;48.606;7.598;2023-11-21T02:06:33;13.61;70.37
76384;SHT30;65204;48.606;7.598;2023-11-21T02:07:04;13.59;70.39
76384;SHT30;65204;48.606;7.598;2023-11-21T02:07:35;13.61;70.40
76384;SHT30;65204;48.606;7.598;2023-11-21T02:08:05;13.57;70.49
76384;SHT30;65204;48.606;7.598;2023-11-21T02:08:36;13.57;70.59
76384;SHT30;65204;48.606;7.598;2023-11-21T02:09:07;13.58;70.50
76384;SHT30;65204;48.606;7.598;2023-11-21T02:09:39;13.61;70.55
76384;SHT30;65204;48.606;7.598;2023-11-21T02:10:12;13.54;70.64
76384;SHT30;65204;48.606;7.598;2023-11-21T02:10:45;13.55;70.66
76384;SHT30;65204;48.606;7.598;2023-11-21T02:11:15;13.57;70.68
76384;SHT30;65204;48.606;7.598;2023-11-21T02:11:46;13.55;70.71
76384;SHT30;65204;48.606;7.598;2023-11-21T02:12:16;13.55;70.75
76384;SHT30;65204;48.606;7.598;2023-11-21T02:12:46;13.53;70.77
76384;SHT30;65204;48.606;7.598;2023-11-21T02:13:17;13.53;70.83
76384;SHT30;65204;48.606;7.598;2023-11-21T02:13:47;13.51;70.82
76384;SHT30;65204;48.606;7.598;2023-11-21T02:14:21;13.51;70.85
76384;SHT30;65204;48.606;7.598;2023-11-21T02:14:52;13.50;70.92
76384;SHT30;65204;48.606;7.598;2023-11-21T02:15:23;13.51;70.95
76384;SHT30;65204;48.606;7.598;2023-11-21T02:15:56;13.50;70.93
76384;SHT30;65204;48.606;7.598;2023-11-21T02:16:28;13.51;70.98
76384;SHT30;65204;48.606;7.598;2023-11-21T02:17:01;13.50;71.02
76384;SHT30;65204;48.606;7.598;2023-11-21T02:17:31;13.48;71.02
76384;SHT30;65204;48.606;7.598;2023-11-21T02:18:02;13.47;71.09
76384;SHT30;65204;48.606;7.598;2023-11-21T02:18:33;13.47;71.16
76384;SHT30;65204;48.606;7.598;2023-11-21T02:19:06;13.47;71.11
76384;SHT30;65204;48.606;7.598;2023-11-21T02:19:39;13.44;71.16
76384;SHT30;65204;48.606;7.598;2023-11-21T02:20:11;13.47;71.12
76384;SHT30;65204;48.606;7.598;2023-11-21T02:20:45;13.47;71.19
76384;SHT30;65204;48.606;7.598;2023-11-21T02:21:16;13.45;71.11
76384;SHT30;65204;48.606;7.598;2023-11-21T02:21:47;13.44;71.20
76384;SHT30;65204;48.606;7.598;2023-11-21T02:22:20;13.45;71.15
76384;SHT30;65204;48.606;7.598;2023-11-21T02:22:52;13.48;71.14
76384;SHT30;65204;48.606;7.598;2023-11-21T02:23:27;13.43;71.25
76384;SHT30;65204;48.606;7.598;2023-11-21T02:23:59;13.41;71.44
76384;SHT30;65204;48.606;7.598;2023-11-21T02:24:29;13.44;71.46
76384;SHT30;65204;48.606;7.598;2023-11-21T02:24:59;13.43;71.49
76384;SHT30;65204;48.606;7.598;2023-11-21T02:25:31;13.43;71.44
76384;SHT30;65204;48.606;7.598;2023-11-21T02:26:02;13.43;71.34
76384;SHT30;65204;48.606;7.598;2023-11-21T02:26:34;13.44;71.37
76384;SHT30;65204;48.606;7.598;2023-11-21T02:27:05;13.43;71.38
76384;SHT30;65204;48.606;7.598;2023-11-21T02:27:36;13.43;71.34
76384;SHT30;65204;48.606;7.598;2023-11-21T02:28:07;13.44;71.32
76384;SHT30;65204;48.606;7.598;2023-11-21T02:28:38;13.45;71.37
76384;SHT30;65204;48.606;7.598;2023-11-21T02:29:08;13.41;71.47
76384;SHT30;65204;48.606;7.598;2023-11-21T02:29:42;13.44;71.44
76384;SHT30;65204;48.606;7.598;2023-11-21T02:30:13;13.41;71.37
76384;SHT30;65204;48.606;7.598;2023-11-21T02:30:44;13.43;71.32
76384;SHT30;65204;48.606;7.598;2023-11-21T02:31:14;13.44;71.27
76384;SHT30;65204;48.606;7.598;2023-11-21T02:31:45;13.44;71.34
76384;SHT30;65204;48.606;7.598;2023-11-21T02:32:18;13.40;71.44
76384;SHT30;65204;48.606;7.598;2023-11-21T02:32:49;13.43;71.47
76384;SHT30;65204;48.606;7.598;2023-11-21T02:33:19;13.43;71.46
76384;SHT30;65204;48.606;7.598;2023-11-21T02:33:50;13.43;71.50
76384;SHT30;65204;48.606;7.598;2023-11-21T02:34:22;13.41;71.41
76384;SHT30;65204;48.606;7.598;2023-11-21T02:34:52;13.40;71.42
76384;SHT30;65204;48.606;7.598;2023-11-21T02:35:26;13.43;71.42
76384;SHT30;65204;48.606;7.598;2023-11-21T02:35:56;13.41;71.38
76384;SHT30;65204;48.606;7.598;2023-11-21T02:36:27;13.45;71.38
76384;SHT30;65204;48.606;7.598;2023-11-21T02:36:57;13.40;71.41
76384;SHT30;65204;48.606;7.598;2023-11-21T02:37:27;13.41;71.44
76384;SHT30;65204;48.606;7.598;2023-11-21T02:37:58;13.41;71.42
76384;SHT30;65204;48.606;7.598;2023-11-21T02:38:28;13.41;71.40
76384;SHT30;65204;48.606;7.598;2023-11-21T02:38:58;13.44;71.38
76384;SHT30;65204;48.606;7.598;2023-11-21T02:39:29;13.43;71.43
76384;SHT30;65204;48.606;7.598;2023-11-21T02:39:59;13.41;71.39
76384;SHT30;65204;48.606;7.598;2023-11-21T02:40:29;13.40;71.38
76384;SHT30;65204;48.606;7.598;2023-11-21T02:41:00;13.43;71.39
76384;SHT30;65204;48.606;7.598;2023-11-21T02:41:30;13.41;71.38
76384;SHT30;65204;48.606;7.598;2023-11-21T02:42:01;13.43;71.38
76384;SHT30;65204;48.606;7.598;2023-11-21T02:42:31;13.45;71.34
76384;SHT30;65204;48.606;7.598;2023-11-21T02:43:01;13.43;71.30
76384;SHT30;65204;48.606;7.598;2023-11-21T02:43:32;13.44;71.27
76384;SHT30;65204;48.606;7.598;2023-11-21T02:44:02;13.43;71.28
76384;SHT30;65204;48.606;7.598;2023-11-21T02:44:33;13.43;71.30
76384;SHT30;65204;48.606;7.598;2023-11-21T02:45:03;13.45;71.34
76384;SHT30;65204;48.606;7.598;2023-11-21T02:45:35;13.44;71.35
76384;SHT30;65204;48.606;7.598;2023-11-21T02:46:08;13.44;71.33
76384;SHT30;65204;48.606;7.598;2023-11-21T02:46:38;13.40;71.37
76384;SHT30;65204;48.606;7.598;2023-11-21T02:47:10;13.44;71.28
76384;SHT30;65204;48.606;7.598;2023-11-21T02:47:40;13.45;71.24
76384;SHT30;65204;48.606;7.598;2023-11-21T02:48:11;13.44;71.22
76384;SHT30;65204;48.606;7.598;2023-11-21T02:48:41;13.45;71.20
76384;SHT30;65204;48.606;7.598;2023-11-21T02:49:11;13.48;71.14
76384;SHT30;65204;48.606;7.598;2023-11-21T02:49:42;13.45;71.10
76384;SHT30;65204;48.606;7.598;2023-11-21T02:50:12;13.48;71.13
76384;SHT30;65204;48.606;7.598;2023-11-21T02:50:43;13.48;71.08
76384;SHT30;65204;48.606;7.598;2023-11-21T02:51:13;13.47;71.03
76384;SHT30;65204;48.606;7.598;2023-11-21T02:51:45;13.45;71.08
76384;SHT30;65204;48.606;7.598;2023-11-21T02:52:16;13.43;71.11
76384;SHT30;65204;48.606;7.598;2023-11-21T02:52:46;13.44;71.11
76384;SHT30;65204;48.606;7.598;2023-11-21T02:53:16;13.43;71.11
76384;SHT30;65204;48.606;7.598;2023-11-21T02:53:47;13.43;71.06
76384;SHT30;65204;48.606;7.598;2023-11-21T02:54:17;13.43;71.06
76384;SHT30;65204;48.606;7.598;2023-11-21T02:54:47;13.41;71.04
76384;SHT30;65204;48.606;7.598;2023-11-21T02:55:18;13.41;71.08
76384;SHT30;65204;48.606;7.598;2023-11-21T02:55:48;13.40;71.10
76384;SHT30;65204;48.606;7.598;2023-11-21T02:56:18;13.41;71.04
76384;SHT30;65204;48.606;7.598;2023-11-21T02:56:49;13.43;71.03
76384;SHT30;65204;48.606;7.598;2023-11-21T02:57:19;13.40;70.99
76384;SHT30;65204;48.606;7.598;2023-11-21T02:57:50;13.40;70.95
76384;SHT30;65204;48.606;7.598;2023-11-21T02:58:20;13.41;71.00
76384;SHT30;65204;48.606;7.598;2023-11-21T02:58:51;13.41;70.95
76384;SHT30;65204;48.606;7.598;2023-11-21T02:59:21;13.37;70.95
76384;SHT30;65204;48.606;7.598;2023-11-21T02:59:52;13.38;70.90
76384;SHT30;65204;48.606;7.598;2023-11-21T03:00:22;13.38;70.92
76384;SHT30;65204;48.606;7.598;2023-11-21T03:00:54;13.38;70.95
76384;SHT30;65204;48.606;7.598;2023-11-21T03:01:24;13.34;70.95
76384;SHT30;65204;48.606;7.598;2023-11-21T03:01:55;13.34;70.94
76384;SHT30;65204;48.606;7.598;2023-11-21T03:02:27;13.35;70.97
76384;SHT30;65204;48.606;7.598;2023-11-21T03:02:57;13.35;70.98
76384;SHT30;65204;48.606;7.598;2023-11-21T03:03:28;13.35;70.99
76384;SHT30;65204;48.606;7.598;2023-11-21T03:03:58;13.33;70.97
76384;SHT30;65204;48.606;7.598;2023-11-21T03:04:29;13.35;70.99
76384;SHT30;65204;48.606;7.598;2023-11-21T03:04:59;13.35;70.94
76384;SHT30;65204;48.606;7.598;2023-11-21T03:05:30;13.34;70.95
76384;SHT30;65204;48.606;7.598;2023-11-21T03:06:01;13.34;70.96
76384;SHT30;65204;48.606;7.598;2023-11-21T03:06:31;13.31;70.96
76384;SHT30;65204;48.606;7.598;2023-11-21T03:07:01;13.33;71.01
76384;SHT30;65204;48.606;7.598;2023-11-21T03:07:32;13.31;71.02
76384;SHT30;65204;48.606;7.598;2023-11-21T03:08:02;13.33;71.03
76384;SHT30;65204;48.606;7.598;2023-11-21T03:08:32;13.33;71.03
76384;SHT30;65204;48.606;7.598;2023-11-21T03:09:03;13.31;71.05
76384;SHT30;65204;48.606;7.598;2023-11-21T03:09:33;13.31;71.07
76384;SHT30;65204;48.606;7.598;2023-11-21T03:10:04;13.31;71.09
76384;SHT30;65204;48.606;7.598;2023-11-21T03:10:35;13.31;71.06
76384;SHT30;65204;48.606;7.598;2023-11-21T03:11:05;13.33;71.09
76384;SHT30;65204;48.606;7.598;2023-11-21T03:11:36;13.31;71.12
76384;SHT30;65204;48.606;7.598;2023-11-21T03:12:06;13.30;71.14
76384;SHT30;65204;48.606;7.598;2023-11-21T03:12:37;13.33;71.14
76384;SHT30;65204;48.606;7.598;2023-11-21T03:13:08;13.33;71.08
76384;SHT30;65204;48.606;7.598;2023-11-21T03:13:42;13.30;71.08
76384;SHT30;65204;48.606;7.598;2023-11-21T03:14:12;13.31;71.10
76384;SHT30;65204;48.606;7.598;2023-11-21T03:14:43;13.30;71.17